Pagrindinis puslapis
METAR-TAF:

METAR-TAF

Oro uostai :

Frederick, Oklahoma, Jungtinės Amerikos Valstijos

platuma: 34-20-40N, ilguma: 098-58-59W, Aukštis: 382 m

Dabartinis oras

Ataskaita buvo paskelbta 35 minutes, ne 16:53 UTC
Vėjas 13 kt iš Pietų/Pietvakarių su gūsio iki 21 kt
Temperatūra 34°C
Drėgmė 47%
Slėgis 1016 hPa
Matomumas: 16.1 km
Giedras dangus

METAR: KFDR 091653Z AUTO 20013G21KT 10SM CLR 34/21 A3000 RMK AO2 SLP136 T03440206

Laikas: 12:28 (17:28 UTC)


TAF: trūkstamas

Orai ataskaitas ir orų prognozės (METAR, TAF).

turimą stotys yra geltonos ir raudonos taškus žemėlapyje.

Perkelti pele per norėdami pamatyti stoties vardą.

Tada spustelėkite, norėdami matyti oro stebėjimo ir prognozės.

Norėdami pakeisti žemėlapį: spustelėkite ant žalios mygtukų su juodo kryžiaus žemyn,; žalią mygtuką su brūkšneliu, jei norite nutolinti; arba žalių rodyklių gretimoms žemėlapius.


METAR-TAF: